sensor_id;sensor_type;location;lat;lon;timestamp;P1;durP1;ratioP1;P2;durP2;ratioP2
59974;SDS011;62136;-35.664;-63.766;2022-08-27T00:00:45;9.18;;;8.25;;
59974;SDS011;62136;-35.664;-63.766;2022-08-27T00:03:13;9.25;;;8.35;;
59974;SDS011;62136;-35.664;-63.766;2022-08-27T00:05:41;8.93;;;7.88;;
59974;SDS011;62136;-35.664;-63.766;2022-08-27T00:08:09;8.90;;;8.05;;
59974;SDS011;62136;-35.664;-63.766;2022-08-27T00:10:38;9.80;;;8.48;;
59974;SDS011;62136;-35.664;-63.766;2022-08-27T00:13:05;8.52;;;7.72;;
59974;SDS011;62136;-35.664;-63.766;2022-08-27T00:15:32;8.73;;;7.88;;
59974;SDS011;62136;-35.664;-63.766;2022-08-27T00:18:00;9.60;;;8.55;;
59974;SDS011;62136;-35.664;-63.766;2022-08-27T00:20:27;9.65;;;8.70;;
59974;SDS011;62136;-35.664;-63.766;2022-08-27T00:22:54;9.52;;;8.20;;
59974;SDS011;62136;-35.664;-63.766;2022-08-27T00:25:21;9.10;;;8.30;;
59974;SDS011;62136;-35.664;-63.766;2022-08-27T00:27:49;10.55;;;8.55;;
59974;SDS011;62136;-35.664;-63.766;2022-08-27T00:30:17;8.95;;;8.13;;
59974;SDS011;62136;-35.664;-63.766;2022-08-27T00:32:46;9.85;;;8.57;;
59974;SDS011;62136;-35.664;-63.766;2022-08-27T00:35:14;9.20;;;8.02;;
59974;SDS011;62136;-35.664;-63.766;2022-08-27T00:37:42;8.82;;;7.93;;
59974;SDS011;62136;-35.664;-63.766;2022-08-27T00:40:11;8.55;;;6.97;;
59974;SDS011;62136;-35.664;-63.766;2022-08-27T00:42:41;8.02;;;7.22;;
59974;SDS011;62136;-35.664;-63.766;2022-08-27T00:45:11;8.10;;;6.78;;
59974;SDS011;62136;-35.664;-63.766;2022-08-27T00:47:44;7.97;;;7.22;;
59974;SDS011;62136;-35.664;-63.766;2022-08-27T00:50:15;8.02;;;7.30;;
59974;SDS011;62136;-35.664;-63.766;2022-08-27T00:52:53;7.70;;;7.07;;
59974;SDS011;62136;-35.664;-63.766;2022-08-27T00:55:27;8.77;;;7.32;;
59974;SDS011;62136;-35.664;-63.766;2022-08-27T00:58:13;7.93;;;7.22;;
59974;SDS011;62136;-35.664;-63.766;2022-08-27T01:00:52;7.88;;;7.18;;
59974;SDS011;62136;-35.664;-63.766;2022-08-27T01:03:21;8.38;;;7.50;;
59974;SDS011;62136;-35.664;-63.766;2022-08-27T01:05:50;7.35;;;6.75;;
59974;SDS011;62136;-35.664;-63.766;2022-08-27T01:08:22;9.02;;;7.97;;
59974;SDS011;62136;-35.664;-63.766;2022-08-27T01:10:53;8.40;;;7.60;;
59974;SDS011;62136;-35.664;-63.766;2022-08-27T01:13:24;7.78;;;7.05;;
59974;SDS011;62136;-35.664;-63.766;2022-08-27T01:15:53;8.82;;;7.72;;
59974;SDS011;62136;-35.664;-63.766;2022-08-27T01:18:30;8.07;;;7.32;;
59974;SDS011;62136;-35.664;-63.766;2022-08-27T01:21:02;7.82;;;7.15;;
59974;SDS011;62136;-35.664;-63.766;2022-08-27T01:23:34;8.18;;;7.47;;
59974;SDS011;62136;-35.664;-63.766;2022-08-27T01:26:15;8.43;;;7.20;;
59974;SDS011;62136;-35.664;-63.766;2022-08-27T01:28:43;8.10;;;7.35;;
59974;SDS011;62136;-35.664;-63.766;2022-08-27T01:31:10;8.05;;;7.25;;
59974;SDS011;62136;-35.664;-63.766;2022-08-27T01:33:38;7.70;;;7.00;;
59974;SDS011;62136;-35.664;-63.766;2022-08-27T01:36:05;8.23;;;6.55;;
59974;SDS011;62136;-35.664;-63.766;2022-08-27T01:38:33;7.32;;;6.63;;
59974;SDS011;62136;-35.664;-63.766;2022-08-27T01:41:00;6.85;;;6.28;;
59974;SDS011;62136;-35.664;-63.766;2022-08-27T01:43:28;7.32;;;6.60;;
59974;SDS011;62136;-35.664;-63.766;2022-08-27T01:45:56;7.60;;;6.90;;
59974;SDS011;62136;-35.664;-63.766;2022-08-27T01:48:23;7.43;;;6.68;;
59974;SDS011;62136;-35.664;-63.766;2022-08-27T01:50:50;7.68;;;6.75;;
59974;SDS011;62136;-35.664;-63.766;2022-08-27T01:53:18;7.60;;;6.90;;
59974;SDS011;62136;-35.664;-63.766;2022-08-27T01:55:48;7.25;;;6.65;;
59974;SDS011;62136;-35.664;-63.766;2022-08-27T01:58:19;7.22;;;6.63;;
59974;SDS011;62136;-35.664;-63.766;2022-08-27T02:00:48;7.50;;;6.80;;
59974;SDS011;62136;-35.664;-63.766;2022-08-27T02:03:17;7.70;;;6.78;;
59974;SDS011;62136;-35.664;-63.766;2022-08-27T02:05:45;7.47;;;6.72;;
59974;SDS011;62136;-35.664;-63.766;2022-08-27T02:08:14;7.38;;;6.70;;
59974;SDS011;62136;-35.664;-63.766;2022-08-27T02:10:42;8.63;;;7.25;;
59974;SDS011;62136;-35.664;-63.766;2022-08-27T02:13:10;7.43;;;6.82;;
59974;SDS011;62136;-35.664;-63.766;2022-08-27T02:15:38;6.88;;;6.30;;
59974;SDS011;62136;-35.664;-63.766;2022-08-27T02:18:07;7.28;;;6.57;;
59974;SDS011;62136;-35.664;-63.766;2022-08-27T02:20:35;6.85;;;6.25;;
59974;SDS011;62136;-35.664;-63.766;2022-08-27T02:23:03;7.32;;;6.47;;
59974;SDS011;62136;-35.664;-63.766;2022-08-27T02:25:30;7.03;;;6.20;;
59974;SDS011;62136;-35.664;-63.766;2022-08-27T02:27:58;7.18;;;6.47;;
59974;SDS011;62136;-35.664;-63.766;2022-08-27T02:30:27;6.45;;;5.95;;
59974;SDS011;62136;-35.664;-63.766;2022-08-27T02:32:59;6.25;;;5.65;;
59974;SDS011;62136;-35.664;-63.766;2022-08-27T02:35:29;6.22;;;5.70;;
59974;SDS011;62136;-35.664;-63.766;2022-08-27T02:37:57;6.03;;;5.43;;
59974;SDS011;62136;-35.664;-63.766;2022-08-27T02:40:26;6.53;;;5.93;;
59974;SDS011;62136;-35.664;-63.766;2022-08-27T02:42:53;6.65;;;6.05;;
59974;SDS011;62136;-35.664;-63.766;2022-08-27T02:45:20;6.30;;;5.70;;
59974;SDS011;62136;-35.664;-63.766;2022-08-27T02:47:48;6.38;;;5.80;;
59974;SDS011;62136;-35.664;-63.766;2022-08-27T02:50:15;6.85;;;6.25;;
59974;SDS011;62136;-35.664;-63.766;2022-08-27T02:52:43;6.13;;;5.63;;
59974;SDS011;62136;-35.664;-63.766;2022-08-27T02:55:10;5.97;;;5.47;;
59974;SDS011;62136;-35.664;-63.766;2022-08-27T02:57:38;7.15;;;6.45;;
59974;SDS011;62136;-35.664;-63.766;2022-08-27T03:00:09;7.30;;;6.30;;
59974;SDS011;62136;-35.664;-63.766;2022-08-27T03:02:38;6.47;;;5.88;;
59974;SDS011;62136;-35.664;-63.766;2022-08-27T03:05:06;7.10;;;6.40;;
59974;SDS011;62136;-35.664;-63.766;2022-08-27T03:07:34;7.57;;;6.70;;
59974;SDS011;62136;-35.664;-63.766;2022-08-27T03:10:02;6.22;;;5.72;;
59974;SDS011;62136;-35.664;-63.766;2022-08-27T03:12:30;7.10;;;6.40;;
59974;SDS011;62136;-35.664;-63.766;2022-08-27T03:15:07;6.75;;;5.75;;
59974;SDS011;62136;-35.664;-63.766;2022-08-27T03:20:07;6.65;;;5.53;;
59974;SDS011;62136;-35.664;-63.766;2022-08-27T03:22:37;5.65;;;5.05;;
59974;SDS011;62136;-35.664;-63.766;2022-08-27T03:25:05;5.88;;;5.30;;
59974;SDS011;62136;-35.664;-63.766;2022-08-27T03:27:33;5.38;;;4.90;;
59974;SDS011;62136;-35.664;-63.766;2022-08-27T03:30:04;5.75;;;5.25;;
59974;SDS011;62136;-35.664;-63.766;2022-08-27T03:32:33;5.93;;;5.18;;
59974;SDS011;62136;-35.664;-63.766;2022-08-27T03:35:01;5.20;;;4.70;;
59974;SDS011;62136;-35.664;-63.766;2022-08-27T03:37:29;6.05;;;5.43;;
59974;SDS011;62136;-35.664;-63.766;2022-08-27T03:39:56;6.38;;;5.78;;
59974;SDS011;62136;-35.664;-63.766;2022-08-27T03:42:29;5.28;;;4.78;;
59974;SDS011;62136;-35.664;-63.766;2022-08-27T03:44:59;5.57;;;4.93;;
59974;SDS011;62136;-35.664;-63.766;2022-08-27T03:47:29;5.68;;;5.05;;
59974;SDS011;62136;-35.664;-63.766;2022-08-27T03:49:57;6.82;;;5.07;;
59974;SDS011;62136;-35.664;-63.766;2022-08-27T03:52:25;6.07;;;5.55;;
59974;SDS011;62136;-35.664;-63.766;2022-08-27T03:54:53;5.53;;;5.03;;
59974;SDS011;62136;-35.664;-63.766;2022-08-27T03:57:20;7.50;;;5.68;;
59974;SDS011;62136;-35.664;-63.766;2022-08-27T03:59:47;5.82;;;5.10;;
59974;SDS011;62136;-35.664;-63.766;2022-08-27T04:02:14;5.75;;;5.20;;
59974;SDS011;62136;-35.664;-63.766;2022-08-27T04:04:41;5.00;;;4.50;;
59974;SDS011;62136;-35.664;-63.766;2022-08-27T04:07:08;5.18;;;4.68;;
59974;SDS011;62136;-35.664;-63.766;2022-08-27T04:09:35;5.03;;;4.60;;
59974;SDS011;62136;-35.664;-63.766;2022-08-27T04:12:02;5.30;;;4.80;;
59974;SDS011;62136;-35.664;-63.766;2022-08-27T04:14:29;5.20;;;4.70;;
59974;SDS011;62136;-35.664;-63.766;2022-08-27T04:16:56;5.10;;;4.30;;
59974;SDS011;62136;-35.664;-63.766;2022-08-27T04:19:24;4.80;;;4.38;;
59974;SDS011;62136;-35.664;-63.766;2022-08-27T04:22:01;4.87;;;4.47;;
59974;SDS011;62136;-35.664;-63.766;2022-08-27T04:24:31;5.05;;;4.55;;
59974;SDS011;62136;-35.664;-63.766;2022-08-27T04:27:00;4.95;;;4.55;;
59974;SDS011;62136;-35.664;-63.766;2022-08-27T04:29:28;5.18;;;4.68;;
59974;SDS011;62136;-35.664;-63.766;2022-08-27T04:31:59;4.90;;;4.45;;
59974;SDS011;62136;-35.664;-63.766;2022-08-27T04:34:29;4.90;;;4.40;;
59974;SDS011;62136;-35.664;-63.766;2022-08-27T04:36:56;5.05;;;4.50;;
59974;SDS011;62136;-35.664;-63.766;2022-08-27T04:39:27;4.47;;;4.15;;
59974;SDS011;62136;-35.664;-63.766;2022-08-27T04:41:56;4.75;;;4.32;;
59974;SDS011;62136;-35.664;-63.766;2022-08-27T04:44:28;5.18;;;4.68;;
59974;SDS011;62136;-35.664;-63.766;2022-08-27T04:46:59;5.95;;;4.55;;
59974;SDS011;62136;-35.664;-63.766;2022-08-27T04:49:28;4.45;;;4.07;;
59974;SDS011;62136;-35.664;-63.766;2022-08-27T04:51:57;4.85;;;4.53;;
59974;SDS011;62136;-35.664;-63.766;2022-08-27T04:54:24;4.90;;;4.40;;
59974;SDS011;62136;-35.664;-63.766;2022-08-27T04:56:54;4.80;;;4.40;;
59974;SDS011;62136;-35.664;-63.766;2022-08-27T04:59:21;4.93;;;4.43;;
59974;SDS011;62136;-35.664;-63.766;2022-08-27T05:01:48;4.82;;;4.43;;
59974;SDS011;62136;-35.664;-63.766;2022-08-27T05:04:21;4.10;;;3.80;;
59974;SDS011;62136;-35.664;-63.766;2022-08-27T05:06:51;4.80;;;4.30;;
59974;SDS011;62136;-35.664;-63.766;2022-08-27T05:09:18;4.22;;;3.83;;
59974;SDS011;62136;-35.664;-63.766;2022-08-27T05:11:45;3.40;;;3.10;;
59974;SDS011;62136;-35.664;-63.766;2022-08-27T05:14:13;4.00;;;3.70;;
59974;SDS011;62136;-35.664;-63.766;2022-08-27T05:16:40;4.53;;;3.72;;
59974;SDS011;62136;-35.664;-63.766;2022-08-27T05:19:12;3.88;;;3.58;;
59974;SDS011;62136;-35.664;-63.766;2022-08-27T05:21:44;4.13;;;3.83;;
59974;SDS011;62136;-35.664;-63.766;2022-08-27T05:24:13;4.10;;;3.70;;
59974;SDS011;62136;-35.664;-63.766;2022-08-27T05:26:40;4.38;;;3.70;;
59974;SDS011;62136;-35.664;-63.766;2022-08-27T05:29:11;4.72;;;4.20;;
59974;SDS011;62136;-35.664;-63.766;2022-08-27T05:31:41;4.15;;;3.75;;
59974;SDS011;62136;-35.664;-63.766;2022-08-27T05:34:09;3.97;;;3.67;;
59974;SDS011;62136;-35.664;-63.766;2022-08-27T05:36:38;5.05;;;3.85;;
59974;SDS011;62136;-35.664;-63.766;2022-08-27T05:39:06;4.18;;;3.80;;
59974;SDS011;62136;-35.664;-63.766;2022-08-27T05:41:39;4.65;;;4.20;;
59974;SDS011;62136;-35.664;-63.766;2022-08-27T05:44:07;5.53;;;3.92;;
59974;SDS011;62136;-35.664;-63.766;2022-08-27T05:46:37;4.22;;;3.83;;
59974;SDS011;62136;-35.664;-63.766;2022-08-27T05:49:04;4.22;;;3.90;;
59974;SDS011;62136;-35.664;-63.766;2022-08-27T05:51:34;3.63;;;3.28;;
59974;SDS011;62136;-35.664;-63.766;2022-08-27T05:54:03;3.97;;;3.58;;
59974;SDS011;62136;-35.664;-63.766;2022-08-27T05:56:39;4.03;;;3.70;;
59974;SDS011;62136;-35.664;-63.766;2022-08-27T05:59:07;3.83;;;3.30;;
59974;SDS011;62136;-35.664;-63.766;2022-08-27T06:01:53;3.75;;;3.45;;
59974;SDS011;62136;-35.664;-63.766;2022-08-27T06:04:22;3.50;;;3.20;;
59974;SDS011;62136;-35.664;-63.766;2022-08-27T06:06:50;4.57;;;3.33;;
59974;SDS011;62136;-35.664;-63.766;2022-08-27T06:09:22;3.72;;;3.42;;
59974;SDS011;62136;-35.664;-63.766;2022-08-27T06:11:53;3.50;;;3.20;;
59974;SDS011;62136;-35.664;-63.766;2022-08-27T06:14:22;3.47;;;3.17;;
59974;SDS011;62136;-35.664;-63.766;2022-08-27T06:16:51;3.42;;;3.13;;
59974;SDS011;62136;-35.664;-63.766;2022-08-27T06:19:18;3.65;;;3.35;;
59974;SDS011;62136;-35.664;-63.766;2022-08-27T06:21:45;3.60;;;3.28;;
59974;SDS011;62136;-35.664;-63.766;2022-08-27T06:24:12;3.47;;;3.20;;
59974;SDS011;62136;-35.664;-63.766;2022-08-27T06:26:40;3.80;;;3.13;;
59974;SDS011;62136;-35.664;-63.766;2022-08-27T06:29:09;3.38;;;3.08;;
59974;SDS011;62136;-35.664;-63.766;2022-08-27T06:31:37;3.53;;;3.22;;
59974;SDS011;62136;-35.664;-63.766;2022-08-27T06:34:05;3.45;;;3.15;;
59974;SDS011;62136;-35.664;-63.766;2022-08-27T06:36:38;3.60;;;3.30;;
59974;SDS011;62136;-35.664;-63.766;2022-08-27T06:39:07;3.92;;;3.53;;
59974;SDS011;62136;-35.664;-63.766;2022-08-27T06:41:41;3.63;;;3.33;;
59974;SDS011;62136;-35.664;-63.766;2022-08-27T06:44:08;3.40;;;3.10;;
59974;SDS011;62136;-35.664;-63.766;2022-08-27T06:46:36;4.00;;;3.00;;
59974;SDS011;62136;-35.664;-63.766;2022-08-27T06:49:04;2.88;;;2.65;;
59974;SDS011;62136;-35.664;-63.766;2022-08-27T06:51:33;2.85;;;2.50;;
59974;SDS011;62136;-35.664;-63.766;2022-08-27T06:54:02;2.70;;;2.47;;
59974;SDS011;62136;-35.664;-63.766;2022-08-27T06:56:33;2.60;;;2.40;;
59974;SDS011;62136;-35.664;-63.766;2022-08-27T06:59:01;3.20;;;2.80;;
59974;SDS011;62136;-35.664;-63.766;2022-08-27T07:01:36;3.20;;;2.97;;
59974;SDS011;62136;-35.664;-63.766;2022-08-27T07:04:07;3.35;;;3.05;;
59974;SDS011;62136;-35.664;-63.766;2022-08-27T07:06:37;2.78;;;2.55;;
59974;SDS011;62136;-35.664;-63.766;2022-08-27T07:09:06;3.20;;;2.72;;
59974;SDS011;62136;-35.664;-63.766;2022-08-27T07:11:33;2.92;;;2.70;;
59974;SDS011;62136;-35.664;-63.766;2022-08-27T07:14:01;2.88;;;2.63;;
59974;SDS011;62136;-35.664;-63.766;2022-08-27T07:16:30;2.67;;;2.47;;
59974;SDS011;62136;-35.664;-63.766;2022-08-27T07:18:58;3.83;;;2.90;;
59974;SDS011;62136;-35.664;-63.766;2022-08-27T07:21:26;2.80;;;2.60;;
59974;SDS011;62136;-35.664;-63.766;2022-08-27T07:23:54;3.15;;;2.85;;
59974;SDS011;62136;-35.664;-63.766;2022-08-27T07:26:29;6.32;;;3.03;;
59974;SDS011;62136;-35.664;-63.766;2022-08-27T07:28:59;2.80;;;2.60;;
59974;SDS011;62136;-35.664;-63.766;2022-08-27T07:31:26;3.55;;;3.17;;
59974;SDS011;62136;-35.664;-63.766;2022-08-27T07:33:54;3.47;;;2.25;;
59974;SDS011;62136;-35.664;-63.766;2022-08-27T07:36:21;3.42;;;2.40;;
59974;SDS011;62136;-35.664;-63.766;2022-08-27T07:38:49;2.42;;;2.17;;
59974;SDS011;62136;-35.664;-63.766;2022-08-27T07:41:17;3.38;;;2.40;;
59974;SDS011;62136;-35.664;-63.766;2022-08-27T07:43:44;2.58;;;2.38;;
59974;SDS011;62136;-35.664;-63.766;2022-08-27T07:46:29;3.92;;;2.33;;
59974;SDS011;62136;-35.664;-63.766;2022-08-27T07:48:57;3.42;;;2.40;;
59974;SDS011;62136;-35.664;-63.766;2022-08-27T07:51:25;2.63;;;2.35;;
59974;SDS011;62136;-35.664;-63.766;2022-08-27T07:53:55;2.72;;;2.22;;
59974;SDS011;62136;-35.664;-63.766;2022-08-27T07:56:23;2.90;;;2.58;;
59974;SDS011;62136;-35.664;-63.766;2022-08-27T07:58:50;6.70;;;3.03;;
59974;SDS011;62136;-35.664;-63.766;2022-08-27T08:01:17;2.75;;;2.40;;
59974;SDS011;62136;-35.664;-63.766;2022-08-27T08:03:44;2.75;;;2.22;;
59974;SDS011;62136;-35.664;-63.766;2022-08-27T08:06:12;2.72;;;2.33;;
59974;SDS011;62136;-35.664;-63.766;2022-08-27T08:08:41;2.30;;;2.00;;
59974;SDS011;62136;-35.664;-63.766;2022-08-27T08:11:10;2.67;;;2.47;;
59974;SDS011;62136;-35.664;-63.766;2022-08-27T08:13:40;2.20;;;2.10;;
59974;SDS011;62136;-35.664;-63.766;2022-08-27T08:16:07;3.08;;;2.28;;
59974;SDS011;62136;-35.664;-63.766;2022-08-27T08:18:35;4.10;;;2.40;;
59974;SDS011;62136;-35.664;-63.766;2022-08-27T08:21:06;4.22;;;2.00;;
59974;SDS011;62136;-35.664;-63.766;2022-08-27T08:23:35;5.38;;;1.90;;
59974;SDS011;62136;-35.664;-63.766;2022-08-27T08:26:03;4.97;;;2.17;;
59974;SDS011;62136;-35.664;-63.766;2022-08-27T08:28:31;4.45;;;2.03;;
59974;SDS011;62136;-35.664;-63.766;2022-08-27T08:30:58;2.30;;;1.90;;
59974;SDS011;62136;-35.664;-63.766;2022-08-27T08:33:25;3.80;;;1.95;;
59974;SDS011;62136;-35.664;-63.766;2022-08-27T08:35:54;3.08;;;2.45;;
59974;SDS011;62136;-35.664;-63.766;2022-08-27T08:38:26;2.28;;;2.10;;
59974;SDS011;62136;-35.664;-63.766;2022-08-27T08:40:53;2.28;;;1.60;;
59974;SDS011;62136;-35.664;-63.766;2022-08-27T08:43:32;2.95;;;2.00;;
59974;SDS011;62136;-35.664;-63.766;2022-08-27T08:48:41;2.60;;;1.73;;
59974;SDS011;62136;-35.664;-63.766;2022-08-27T08:53:53;2.88;;;1.95;;
59974;SDS011;62136;-35.664;-63.766;2022-08-27T08:56:28;2.20;;;2.00;;
59974;SDS011;62136;-35.664;-63.766;2022-08-27T08:59:09;2.47;;;1.80;;
59974;SDS011;62136;-35.664;-63.766;2022-08-27T09:01:45;4.85;;;2.20;;
59974;SDS011;62136;-35.664;-63.766;2022-08-27T09:04:14;3.67;;;1.88;;
59974;SDS011;62136;-35.664;-63.766;2022-08-27T09:12:17;3.53;;;1.60;;
59974;SDS011;62136;-35.664;-63.766;2022-08-27T09:14:52;4.10;;;1.67;;
59974;SDS011;62136;-35.664;-63.766;2022-08-27T09:17:41;3.33;;;1.60;;
59974;SDS011;62136;-35.664;-63.766;2022-08-27T09:20:10;3.38;;;1.52;;
59974;SDS011;62136;-35.664;-63.766;2022-08-27T09:22:45;4.13;;;1.70;;
59974;SDS011;62136;-35.664;-63.766;2022-08-27T09:25:35;3.65;;;1.60;;
59974;SDS011;62136;-35.664;-63.766;2022-08-27T09:28:08;1.50;;;1.40;;
59974;SDS011;62136;-35.664;-63.766;2022-08-27T09:31:01;3.50;;;1.70;;
59974;SDS011;62136;-35.664;-63.766;2022-08-27T09:33:33;4.95;;;1.60;;
59974;SDS011;62136;-35.664;-63.766;2022-08-27T09:36:03;1.70;;;1.20;;
59974;SDS011;62136;-35.664;-63.766;2022-08-27T09:38:33;2.53;;;1.77;;
59974;SDS011;62136;-35.664;-63.766;2022-08-27T09:41:02;3.00;;;1.58;;
59974;SDS011;62136;-35.664;-63.766;2022-08-27T09:43:32;2.70;;;1.35;;
59974;SDS011;62136;-35.664;-63.766;2022-08-27T09:46:04;2.17;;;1.35;;
59974;SDS011;62136;-35.664;-63.766;2022-08-27T09:48:41;1.60;;;1.15;;
59974;SDS011;62136;-35.664;-63.766;2022-08-27T09:51:11;1.23;;;1.00;;
59974;SDS011;62136;-35.664;-63.766;2022-08-27T09:53:42;5.40;;;1.33;;
59974;SDS011;62136;-35.664;-63.766;2022-08-27T09:56:26;2.75;;;1.15;;
59974;SDS011;62136;-35.664;-63.766;2022-08-27T10:01:37;2.97;;;1.15;;
59974;SDS011;62136;-35.664;-63.766;2022-08-27T10:04:22;2.42;;;1.08;;
59974;SDS011;62136;-35.664;-63.766;2022-08-27T10:07:10;3.70;;;1.10;;
59974;SDS011;62136;-35.664;-63.766;2022-08-27T10:09:59;2.40;;;1.27;;
59974;SDS011;62136;-35.664;-63.766;2022-08-27T10:12:41;1.90;;;1.10;;
59974;SDS011;62136;-35.664;-63.766;2022-08-27T10:15:34;1.63;;;1.00;;
59974;SDS011;62136;-35.664;-63.766;2022-08-27T10:18:18;1.30;;;1.17;;
59974;SDS011;62136;-35.664;-63.766;2022-08-27T10:34:51;1.48;;;1.02;;
59974;SDS011;62136;-35.664;-63.766;2022-08-27T10:40:45;1.95;;;1.08;;
59974;SDS011;62136;-35.664;-63.766;2022-08-27T10:48:55;1.23;;;0.90;;
59974;SDS011;62136;-35.664;-63.766;2022-08-27T10:54:34;1.17;;;1.08;;
59974;SDS011;62136;-35.664;-63.766;2022-08-27T10:57:20;3.03;;;0.80;;
59974;SDS011;62136;-35.664;-63.766;2022-08-27T11:00:03;3.72;;;0.90;;
59974;SDS011;62136;-35.664;-63.766;2022-08-27T11:02:45;1.58;;;1.10;;
59974;SDS011;62136;-35.664;-63.766;2022-08-27T11:07:50;1.13;;;0.90;;
59974;SDS011;62136;-35.664;-63.766;2022-08-27T11:10:38;1.58;;;0.90;;
59974;SDS011;62136;-35.664;-63.766;2022-08-27T11:13:09;5.70;;;1.27;;
59974;SDS011;62136;-35.664;-63.766;2022-08-27T11:15:42;2.10;;;1.00;;
59974;SDS011;62136;-35.664;-63.766;2022-08-27T11:21:28;6.82;;;1.27;;
59974;SDS011;62136;-35.664;-63.766;2022-08-27T11:27:07;3.00;;;0.80;;
59974;SDS011;62136;-35.664;-63.766;2022-08-27T11:29:38;2.35;;;1.00;;
59974;SDS011;62136;-35.664;-63.766;2022-08-27T11:35:00;3.20;;;0.80;;
59974;SDS011;62136;-35.664;-63.766;2022-08-27T11:43:39;3.67;;;0.88;;
59974;SDS011;62136;-35.664;-63.766;2022-08-27T11:46:07;3.25;;;1.17;;
59974;SDS011;62136;-35.664;-63.766;2022-08-27T11:48:37;3.85;;;0.85;;
59974;SDS011;62136;-35.664;-63.766;2022-08-27T11:51:11;3.22;;;0.98;;
59974;SDS011;62136;-35.664;-63.766;2022-08-27T11:53:58;3.15;;;0.90;;
59974;SDS011;62136;-35.664;-63.766;2022-08-27T11:58:54;2.58;;;0.90;;
59974;SDS011;62136;-35.664;-63.766;2022-08-27T12:01:33;2.28;;;0.73;;
59974;SDS011;62136;-35.664;-63.766;2022-08-27T12:04:19;3.08;;;1.10;;
59974;SDS011;62136;-35.664;-63.766;2022-08-27T12:10:36;3.85;;;0.80;;
59974;SDS011;62136;-35.664;-63.766;2022-08-27T12:23:30;3.22;;;0.82;;
59974;SDS011;62136;-35.664;-63.766;2022-08-27T12:28:55;3.03;;;0.60;;
59974;SDS011;62136;-35.664;-63.766;2022-08-27T12:32:08;1.65;;;0.80;;
59974;SDS011;62136;-35.664;-63.766;2022-08-27T12:37:49;1.85;;;0.60;;
59974;SDS011;62136;-35.664;-63.766;2022-08-27T12:40:25;1.95;;;1.10;;
59974;SDS011;62136;-35.664;-63.766;2022-08-27T12:43:13;2.85;;;1.20;;
59974;SDS011;62136;-35.664;-63.766;2022-08-27T12:46:04;4.20;;;0.70;;
59974;SDS011;62136;-35.664;-63.766;2022-08-27T12:48:37;5.63;;;0.88;;
59974;SDS011;62136;-35.664;-63.766;2022-08-27T12:53:43;4.38;;;0.60;;
59974;SDS011;62136;-35.664;-63.766;2022-08-27T13:05:03;4.18;;;0.85;;
59974;SDS011;62136;-35.664;-63.766;2022-08-27T13:07:33;5.03;;;1.20;;
59974;SDS011;62136;-35.664;-63.766;2022-08-27T13:10:17;5.53;;;0.90;;
59974;SDS011;62136;-35.664;-63.766;2022-08-27T13:15:43;7.75;;;1.10;;
59974;SDS011;62136;-35.664;-63.766;2022-08-27T13:18:14;4.75;;;1.00;;
59974;SDS011;62136;-35.664;-63.766;2022-08-27T13:20:42;8.40;;;0.82;;
59974;SDS011;62136;-35.664;-63.766;2022-08-27T13:23:14;8.88;;;0.98;;
59974;SDS011;62136;-35.664;-63.766;2022-08-27T13:28:34;7.88;;;1.55;;
59974;SDS011;62136;-35.664;-63.766;2022-08-27T13:31:04;7.40;;;1.63;;
59974;SDS011;62136;-35.664;-63.766;2022-08-27T13:33:33;11.13;;;1.98;;
59974;SDS011;62136;-35.664;-63.766;2022-08-27T13:36:02;11.05;;;1.58;;
59974;SDS011;62136;-35.664;-63.766;2022-08-27T13:38:32;6.68;;;1.60;;
59974;SDS011;62136;-35.664;-63.766;2022-08-27T13:43:34;14.13;;;2.05;;
59974;SDS011;62136;-35.664;-63.766;2022-08-27T13:46:06;10.15;;;1.55;;
59974;SDS011;62136;-35.664;-63.766;2022-08-27T13:48:54;13.73;;;2.05;;
59974;SDS011;62136;-35.664;-63.766;2022-08-27T13:51:31;12.50;;;1.60;;
59974;SDS011;62136;-35.664;-63.766;2022-08-27T13:54:00;14.10;;;2.10;;
59974;SDS011;62136;-35.664;-63.766;2022-08-27T13:59:14;18.95;;;3.03;;
59974;SDS011;62136;-35.664;-63.766;2022-08-27T14:01:58;9.75;;;1.60;;
59974;SDS011;62136;-35.664;-63.766;2022-08-27T14:07:26;8.18;;;1.50;;
59974;SDS011;62136;-35.664;-63.766;2022-08-27T14:10:01;13.10;;;1.75;;
59974;SDS011;62136;-35.664;-63.766;2022-08-27T14:12:52;11.80;;;1.48;;
59974;SDS011;62136;-35.664;-63.766;2022-08-27T14:15:36;13.45;;;1.98;;
59974;SDS011;62136;-35.664;-63.766;2022-08-27T14:18:07;11.25;;;2.25;;
59974;SDS011;62136;-35.664;-63.766;2022-08-27T14:20:50;8.63;;;1.40;;
59974;SDS011;62136;-35.664;-63.766;2022-08-27T14:23:17;12.40;;;2.55;;
59974;SDS011;62136;-35.664;-63.766;2022-08-27T15:20:10;9.93;;;1.95;;
59974;SDS011;62136;-35.664;-63.766;2022-08-27T15:22:39;8.55;;;1.60;;
59974;SDS011;62136;-35.664;-63.766;2022-08-27T15:25:09;5.30;;;1.02;;
59974;SDS011;62136;-35.664;-63.766;2022-08-27T15:27:36;5.93;;;1.10;;
59974;SDS011;62136;-35.664;-63.766;2022-08-27T15:30:04;9.23;;;1.33;;
59974;SDS011;62136;-35.664;-63.766;2022-08-27T15:32:35;6.22;;;1.35;;
59974;SDS011;62136;-35.664;-63.766;2022-08-27T15:35:09;5.85;;;1.40;;
59974;SDS011;62136;-35.664;-63.766;2022-08-27T15:37:39;5.93;;;1.45;;
59974;SDS011;62136;-35.664;-63.766;2022-08-27T15:40:07;6.20;;;1.50;;
59974;SDS011;62136;-35.664;-63.766;2022-08-27T15:42:36;8.27;;;1.40;;
59974;SDS011;62136;-35.664;-63.766;2022-08-27T15:45:04;9.48;;;1.10;;
59974;SDS011;62136;-35.664;-63.766;2022-08-27T15:47:32;4.88;;;1.13;;
59974;SDS011;62136;-35.664;-63.766;2022-08-27T15:49:59;7.50;;;1.25;;
59974;SDS011;62136;-35.664;-63.766;2022-08-27T15:52:28;5.38;;;0.90;;
59974;SDS011;62136;-35.664;-63.766;2022-08-27T15:54:55;6.95;;;1.27;;
59974;SDS011;62136;-35.664;-63.766;2022-08-27T15:57:22;4.18;;;1.13;;
59974;SDS011;62136;-35.664;-63.766;2022-08-27T15:59:49;4.20;;;1.20;;
59974;SDS011;62136;-35.664;-63.766;2022-08-27T16:02:21;4.35;;;1.00;;
59974;SDS011;62136;-35.664;-63.766;2022-08-27T16:04:49;7.68;;;1.13;;
59974;SDS011;62136;-35.664;-63.766;2022-08-27T16:07:17;6.22;;;0.95;;
59974;SDS011;62136;-35.664;-63.766;2022-08-27T16:09:45;4.82;;;1.02;;
59974;SDS011;62136;-35.664;-63.766;2022-08-27T16:12:12;7.18;;;1.25;;
59974;SDS011;62136;-35.664;-63.766;2022-08-27T16:14:40;8.10;;;1.10;;
59974;SDS011;62136;-35.664;-63.766;2022-08-27T16:17:07;4.45;;;0.93;;
59974;SDS011;62136;-35.664;-63.766;2022-08-27T16:19:35;5.15;;;1.10;;
59974;SDS011;62136;-35.664;-63.766;2022-08-27T16:22:02;7.00;;;1.13;;
59974;SDS011;62136;-35.664;-63.766;2022-08-27T16:24:31;6.35;;;1.40;;
59974;SDS011;62136;-35.664;-63.766;2022-08-27T16:26:58;5.70;;;1.15;;
59974;SDS011;62136;-35.664;-63.766;2022-08-27T16:29:25;7.07;;;1.17;;
59974;SDS011;62136;-35.664;-63.766;2022-08-27T16:31:52;3.65;;;0.80;;
59974;SDS011;62136;-35.664;-63.766;2022-08-27T16:34:20;5.28;;;1.00;;
59974;SDS011;62136;-35.664;-63.766;2022-08-27T16:36:52;6.45;;;1.08;;
59974;SDS011;62136;-35.664;-63.766;2022-08-27T16:39:19;4.80;;;1.05;;
59974;SDS011;62136;-35.664;-63.766;2022-08-27T16:41:47;5.72;;;0.68;;
59974;SDS011;62136;-35.664;-63.766;2022-08-27T16:44:14;4.07;;;0.82;;
59974;SDS011;62136;-35.664;-63.766;2022-08-27T16:46:42;6.68;;;1.38;;
59974;SDS011;62136;-35.664;-63.766;2022-08-27T16:49:09;8.90;;;1.40;;
59974;SDS011;62136;-35.664;-63.766;2022-08-27T16:51:54;7.05;;;1.20;;
59974;SDS011;62136;-35.664;-63.766;2022-08-27T16:54:21;6.63;;;0.95;;
59974;SDS011;62136;-35.664;-63.766;2022-08-27T16:56:48;5.07;;;1.00;;
59974;SDS011;62136;-35.664;-63.766;2022-08-27T16:59:15;3.97;;;1.17;;
59974;SDS011;62136;-35.664;-63.766;2022-08-27T17:01:50;7.28;;;1.30;;
59974;SDS011;62136;-35.664;-63.766;2022-08-27T17:04:18;3.30;;;0.88;;
59974;SDS011;62136;-35.664;-63.766;2022-08-27T17:06:46;4.72;;;1.25;;
59974;SDS011;62136;-35.664;-63.766;2022-08-27T17:09:16;7.30;;;1.10;;
59974;SDS011;62136;-35.664;-63.766;2022-08-27T17:11:44;4.85;;;1.00;;